Hovedside
METAR-TAF:

METAR-TAF

Lufthavner :

Svolvær lufthavn. Helle

Svolvær, Norge

breddegrad: 68-15N, lengdegrad: 014-40E, høyde over havet: 0 m

Gjeldene værobservasjon

Denne rapporten ble laget for 3 timer og 44 minutter siden, klokken 13:50 UTC
Vind 5 kt fra skiftende retning
Temperatur 11°C
Luftfuktighet 50%
Trykk 1032 hPa
Sikt 10 km eller mer
Spredte skyer i en høyde av 4500 ft

METAR: ENSH 261350Z VRB05KT 9999 SCT045 11/01 Q1032 RMK WIND 150FT 32013KT

Tid: 19:34 (17:34 UTC)


TAF: fraværende

Værobservasjoner og værvarsel for over 4000 flyplasser (METAR- og TAF-rapporter).

Tilgjengelige stasjoner er representert av de røde og gule prikkene på kartet.

Hold musepekeren over prikken for å se navnet på stasjonen.

Klikk så for å se værobservasjoner og -varsler.

For å forandre kartet kan du klikke på den grønne knappen med svart kryss for å zoome inn, på den grønne knappen med strek for å zoome ut, eller på de grønne pilene for å se tilstøtende kart.


METAR-TAF: